Time;durP1;ratioP1;P1;durP2;ratioP2;P2;SDS_P1;SDS_P2;PMS_P1;PMS_P2;Temp;Humidity;BMP_temperature;BMP_pressure;BME280_temperature;BME280_humidity;BME280_pressure;Samples;Min_cycle;Max_cycle;Signal;HPM_P1;HPM_P2
2023/03/16 00:00:12;;;;;;;9.93;3.90;;;;;;;2.02;84.47;101645.13;4966068;28;20047;-72
2023/03/16 00:02:42;;;;;;;12.25;3.88;;;;;;;2.23;83.83;101640.59;4948663;28;20043;-72
2023/03/16 00:05:12;;;;;;;12.25;3.13;;;;;;;2.23;83.44;101631.19;4966933;28;20037;-71
2023/03/16 00:07:40;;;;;;;8.13;3.40;;;;;;;2.14;83.95;101626.56;4947990;28;20039;-72
2023/03/16 00:10:07;;;;;;;6.50;3.60;;;;;;;2.20;83.95;101622.84;4962889;28;20046;-72
2023/03/16 00:12:33;;;;;;;6.38;3.28;;;;;;;2.16;84.35;101611.13;4952951;28;20452;-72
2023/03/16 00:15:00;;;;;;;9.25;4.32;;;;;;;2.14;84.98;101613.75;4945279;28;20035;-72
2023/03/16 00:17:26;;;;;;;7.32;3.40;;;;;;;2.09;85.16;101610.59;4963952;28;21459;-72
2023/03/16 00:19:54;;;;;;;7.75;3.80;;;;;;;2.07;84.63;101615.00;4943076;28;20038;-72
2023/03/16 00:22:21;;;;;;;7.80;3.90;;;;;;;2.20;84.49;101608.31;4944941;28;20049;-72
2023/03/16 00:24:47;;;;;;;11.90;4.35;;;;;;;2.07;84.39;101617.53;4947908;28;20337;-72
2023/03/16 00:27:13;;;;;;;6.60;3.25;;;;;;;2.14;84.58;101616.31;4945894;28;20575;-72
2023/03/16 00:29:46;;;;;;;5.72;3.47;;;;;;;2.17;85.29;101615.31;4963247;28;20038;-72
2023/03/16 00:32:18;;;;;;;10.35;4.10;;;;;;;2.05;85.90;101622.75;4940832;28;20089;-72
2023/03/16 00:34:44;;;;;;;8.85;3.47;;;;;;;2.08;86.30;101630.25;4980984;28;20477;-72
2023/03/16 00:37:14;;;;;;;7.85;3.85;;;;;;;2.03;86.41;101619.44;4969193;28;20034;-72
2023/03/16 00:39:40;;;;;;;19.13;5.78;;;;;;;2.05;86.88;101630.41;4984755;28;20038;-72
2023/03/16 00:42:08;;;;;;;14.80;4.85;;;;;;;2.12;87.10;101624.06;4987454;28;20022;-72
2023/03/16 00:44:34;;;;;;;8.73;4.45;;;;;;;2.14;86.88;101624.81;4952815;28;20062;-72
2023/03/16 00:47:00;;;;;;;10.63;5.00;;;;;;;1.94;87.47;101615.66;4983281;28;20023;-72
2023/03/16 00:49:26;;;;;;;13.57;5.05;;;;;;;2.01;87.75;101615.31;4983811;28;20045;-71
2023/03/16 00:51:51;;;;;;;15.20;6.35;;;;;;;2.05;87.92;101612.50;4986920;28;20022;-72
2023/03/16 00:54:18;;;;;;;9.65;4.70;;;;;;;2.03;87.73;101609.19;4969215;28;20494;-72
2023/03/16 00:56:44;;;;;;;10.35;5.63;;;;;;;1.93;88.26;101608.88;4967828;28;20033;-72
2023/03/16 00:59:11;;;;;;;12.38;5.57;;;;;;;1.95;88.42;101603.66;4984061;28;20404;-72
2023/03/16 01:01:37;;;;;;;10.38;5.18;;;;;;;1.95;87.99;101588.31;4984584;28;20046;-72
2023/03/16 01:04:03;;;;;;;10.98;5.57;;;;;;;2.01;88.26;101588.00;4968802;28;20034;-72
2023/03/16 01:06:28;;;;;;;11.32;5.80;;;;;;;1.89;88.35;101583.53;4983418;28;20049;-72
2023/03/16 01:08:54;;;;;;;13.23;6.47;;;;;;;1.93;88.45;101583.28;4981127;28;20509;-72
2023/03/16 01:11:21;;;;;;;12.40;5.82;;;;;;;1.97;88.76;101580.56;4969396;28;20023;-72
2023/03/16 01:13:48;;;;;;;9.90;5.80;;;;;;;1.85;89.33;101579.50;4951110;28;20034;-72
2023/03/16 01:16:17;;;;;;;14.75;5.93;;;;;;;1.93;89.09;101582.47;4965632;28;20038;-72
2023/03/16 01:18:43;;;;;;;13.13;5.30;;;;;;;1.93;89.17;101579.91;4967292;28;20035;-72
2023/03/16 01:21:12;;;;;;;13.88;5.97;;;;;;;1.90;89.87;101575.78;4950931;28;20025;-72
2023/03/16 01:23:38;;;;;;;9.07;5.22;;;;;;;1.97;89.37;101573.72;4981308;28;20038;-72
2023/03/16 01:26:06;;;;;;;14.27;6.25;;;;;;;1.92;89.31;101566.31;4966403;28;20038;-71
2023/03/16 01:28:33;;;;;;;13.05;6.40;;;;;;;1.93;89.14;101567.13;4984341;28;20078;-72
2023/03/16 01:31:03;;;;;;;11.43;5.50;;;;;;;1.93;88.82;101556.88;4952111;28;20037;-72
2023/03/16 01:33:30;;;;;;;11.88;5.53;;;;;;;1.87;89.18;101554.66;4962544;28;20042;-72
2023/03/16 01:35:59;;;;;;;13.43;5.60;;;;;;;1.92;89.41;101552.66;4949643;28;20031;-71
2023/03/16 01:38:30;;;;;;;17.00;5.35;;;;;;;1.91;89.49;101538.25;4979154;28;20085;-71
2023/03/16 01:40:56;;;;;;;20.02;6.13;;;;;;;1.90;89.95;101541.69;4965786;28;20038;-72
2023/03/16 01:43:24;;;;;;;11.82;5.05;;;;;;;1.87;89.46;101541.88;4981282;28;20045;-72
2023/03/16 01:46:04;;;;;;;10.25;5.47;;;;;;;1.94;89.39;101538.06;4953061;28;20041;-71
2023/03/16 01:49:04;;;;;;;8.55;4.70;;;;;;;1.91;89.36;101531.38;4962460;28;20085;-72
2023/03/16 01:51:51;;;;;;;11.88;4.65;;;;;;;1.92;89.94;101533.03;4966967;28;20133;-72
2023/03/16 01:54:36;;;;;;;10.48;5.13;;;;;;;1.86;89.96;101537.66;4986004;28;20149;-72
2023/03/16 01:57:17;;;;;;;11.00;5.65;;;;;;;1.80;90.17;101531.13;4981309;28;20034;-72
2023/03/16 01:59:51;;;;;;;13.13;4.95;;;;;;;1.91;90.28;101525.44;4982791;28;20034;-72
2023/03/16 02:02:20;;;;;;;7.57;4.35;;;;;;;1.92;89.49;101538.16;4950896;28;20030;-72
2023/03/16 02:05:14;;;;;;;14.02;4.93;;;;;;;1.85;89.88;101538.56;4969571;28;20058;-72
2023/03/16 02:07:45;;;;;;;12.63;4.85;;;;;;;1.91;89.79;101531.38;4980033;28;20037;-71
2023/03/16 02:10:13;;;;;;;11.63;5.00;;;;;;;1.90;89.95;101523.78;4971669;28;20027;-72
2023/03/16 02:12:38;;;;;;;11.45;5.75;;;;;;;1.87;90.45;101529.91;4952034;28;20033;-72
2023/03/16 02:15:05;;;;;;;10.30;4.60;;;;;;;1.81;90.45;101519.16;4965075;28;20022;-72
2023/03/16 02:17:33;;;;;;;10.73;5.20;;;;;;;1.92;90.77;101516.84;4971869;28;20403;-72
2023/03/16 02:20:36;;;;;;;14.65;5.03;;;;;;;1.87;90.44;101508.63;4980353;28;20078;-72
2023/03/16 02:23:04;;;;;;;8.88;4.63;;;;;;;1.78;90.66;101501.44;4985522;28;20042;-72
2023/03/16 02:25:52;;;;;;;13.13;5.00;;;;;;;1.86;90.13;101502.66;4975853;28;20524;-72
2023/03/16 02:28:24;;;;;;;9.15;4.35;;;;;;;1.85;90.65;101495.09;4985522;28;20089;-72
2023/03/16 02:30:51;;;;;;;10.13;4.40;;;;;;;1.87;90.69;101485.59;4969776;28;20057;-72
2023/03/16 02:33:18;;;;;;;10.30;4.25;;;;;;;1.89;90.64;101482.03;4969979;28;20038;-72
2023/03/16 02:35:43;;;;;;;12.73;4.60;;;;;;;1.90;90.58;101483.72;4955021;28;20030;-72
2023/03/16 02:38:09;;;;;;;16.83;4.93;;;;;;;1.92;90.40;101483.59;4984050;28;20042;-72
2023/03/16 02:40:42;;;;;;;9.82;5.80;;;;;;;1.86;90.52;101482.19;4983590;28;20033;-72
2023/03/16 02:43:19;;;;;;;9.82;4.40;;;;;;;1.86;90.33;101483.94;4981717;28;20035;-72
2023/03/16 02:45:57;;;;;;;10.77;4.57;;;;;;;1.85;90.75;101484.84;4954496;28;20033;-72
2023/03/16 02:48:51;;;;;;;14.07;4.88;;;;;;;1.88;90.68;101477.81;4948988;28;20169;-72
2023/03/16 02:51:18;;;;;;;10.38;4.90;;;;;;;1.99;90.54;101468.75;4952993;28;20042;-72
2023/03/16 02:53:44;;;;;;;10.85;4.55;;;;;;;1.95;90.39;101471.47;4967915;28;20089;-72
2023/03/16 02:56:09;;;;;;;11.35;4.70;;;;;;;1.90;90.41;101470.06;4984093;28;20092;-72
2023/03/16 02:58:36;;;;;;;10.93;5.18;;;;;;;1.93;90.32;101469.91;4950630;28;20038;-72
2023/03/16 03:01:05;;;;;;;9.38;4.90;;;;;;;1.95;90.39;101461.22;4953110;28;20043;-72
2023/03/16 03:03:33;;;;;;;12.73;4.78;;;;;;;1.96;90.37;101451.84;4967608;28;20034;-72
2023/03/16 03:05:59;;;;;;;11.05;4.70;;;;;;;1.88;90.26;101444.56;4983193;28;20045;-72
2023/03/16 03:08:24;;;;;;;11.77;4.68;;;;;;;2.00;89.90;101447.38;4982558;28;20117;-72
2023/03/16 03:10:50;;;;;;;8.02;4.15;;;;;;;1.89;90.13;101443.69;4982158;28;20042;-72
2023/03/16 03:13:16;;;;;;;9.95;4.68;;;;;;;1.99;90.13;101444.00;4983062;28;20046;-72
2023/03/16 03:15:42;;;;;;;9.20;4.47;;;;;;;1.97;89.86;101445.81;4949169;28;20389;-71
2023/03/16 03:18:10;;;;;;;12.48;5.00;;;;;;;2.00;89.57;101440.53;4977325;28;20070;-72
2023/03/16 03:20:35;;;;;;;12.05;4.85;;;;;;;1.88;90.12;101439.44;4967282;28;20056;-72
2023/03/16 03:23:01;;;;;;;8.68;4.50;;;;;;;1.89;90.34;101446.22;4965789;28;20516;-72
2023/03/16 03:25:27;;;;;;;8.75;4.38;;;;;;;1.93;90.22;101436.66;4966023;28;20045;-72
2023/03/16 03:27:53;;;;;;;9.88;4.30;;;;;;;2.00;89.44;101442.25;4969642;28;20053;-72
2023/03/16 03:30:23;;;;;;;9.00;4.38;;;;;;;2.00;89.80;101442.25;4966693;28;20708;-72
2023/03/16 03:32:48;;;;;;;10.27;4.30;;;;;;;1.99;90.00;101438.88;4965486;28;20413;-72
2023/03/16 03:35:16;;;;;;;13.48;5.20;;;;;;;1.95;89.64;101447.63;4986601;28;20026;-72
2023/03/16 03:37:45;;;;;;;7.43;4.18;;;;;;;1.96;90.01;101444.19;4965625;28;20543;-72
2023/03/16 03:40:14;;;;;;;10.23;4.20;;;;;;;1.99;89.80;101440.63;4980141;28;20093;-72
2023/03/16 03:42:42;;;;;;;8.57;4.30;;;;;;;2.04;90.10;101441.19;4982815;28;20037;-72
2023/03/16 03:45:11;;;;;;;6.70;3.67;;;;;;;2.06;89.32;101435.06;4970896;28;20022;-71
2023/03/16 03:47:38;;;;;;;8.55;4.18;;;;;;;2.03;89.17;101442.09;4982684;28;20046;-73
2023/03/16 03:50:05;;;;;;;11.82;3.88;;;;;;;2.01;89.59;101443.91;4966292;28;20583;-72
2023/03/16 03:52:37;;;;;;;;;;;;;;;2.05;89.85;101445.38;4950478;28;20117;-72
2023/03/16 03:55:04;;;;;;;13.55;4.07;;;;;;;2.07;89.86;101443.56;4963257;28;20013;-72
2023/03/16 03:57:30;;;;;;;12.27;5.35;;;;;;;2.03;89.80;101444.66;4984798;28;20073;-72
2023/03/16 03:59:55;;;;;;;9.38;4.53;;;;;;;2.09;89.57;101449.41;4961329;28;20046;-72
2023/03/16 04:02:40;;;;;;;8.63;4.35;;;;;;;2.11;89.38;101442.47;4967301;28;20509;-72
2023/03/16 04:05:12;;;;;;;7.20;4.40;;;;;;;2.11;88.96;101443.31;4968196;28;20026;-72
2023/03/16 04:07:37;;;;;;;10.65;4.70;;;;;;;2.17;88.84;101446.44;4947894;28;20835;-72
2023/03/16 04:10:07;;;;;;;9.95;4.60;;;;;;;2.20;88.88;101436.03;4966080;28;20027;-72
2023/03/16 04:12:38;;;;;;;9.88;4.47;;;;;;;2.14;88.85;101442.31;4983262;28;20113;-71
2023/03/16 04:15:07;;;;;;;6.75;4.32;;;;;;;2.19;88.51;101444.63;4981293;28;20031;-72
2023/03/16 04:17:41;;;;;;;12.20;4.70;;;;;;;2.17;88.53;101429.38;4979355;28;20041;-72
2023/03/16 04:20:13;;;;;;;9.15;4.28;;;;;;;2.18;88.38;101428.44;4983228;28;20058;-72
2023/03/16 04:22:44;;;;;;;15.15;4.78;;;;;;;2.14;88.42;101421.84;4981975;28;20085;-72
2023/03/16 04:25:11;;;;;;;7.03;3.92;;;;;;;2.18;88.66;101419.94;4968382;28;20485;-72
2023/03/16 04:27:38;;;;;;;12.05;4.38;;;;;;;2.12;88.60;101413.44;4987195;28;20681;-72
2023/03/16 04:30:10;;;;;;;9.82;4.75;;;;;;;2.11;88.80;101422.84;4966752;28;20118;-72
2023/03/16 04:32:39;;;;;;;12.25;4.35;;;;;;;2.19;88.25;101419.84;4970762;28;20046;-71
2023/03/16 04:35:05;;;;;;;10.85;4.70;;;;;;;2.11;88.74;101415.19;4971350;28;20370;-72
2023/03/16 04:37:41;;;;;;;7.18;3.85;;;;;;;2.12;88.28;101405.75;4982894;28;20366;-72
2023/03/16 04:40:14;;;;;;;11.25;4.28;;;;;;;2.13;89.18;101400.56;5016504;23;20045;-72
2023/03/16 04:42:45;;;;;;;10.27;4.82;;;;;;;2.20;88.56;101398.47;5057709;28;20086;-71
2023/03/16 04:45:17;;;;;;;11.52;4.47;;;;;;;2.22;88.74;101416.28;5046295;28;20036;-73
2023/03/16 04:47:42;;;;;;;10.75;4.88;;;;;;;2.24;88.46;101401.69;5049528;28;20028;-72
2023/03/16 04:50:09;;;;;;;18.00;6.93;;;;;;;2.22;88.82;101403.50;5047948;28;20055;-72
2023/03/16 04:52:35;;;;;;;14.50;6.43;;;;;;;2.24;88.59;101399.13;5046186;28;20025;-74
2023/03/16 04:55:01;;;;;;;8.27;4.15;;;;;;;2.18;88.50;101389.22;5043807;28;20067;-72
2023/03/16 04:57:29;;;;;;;11.48;4.80;;;;;;;2.17;89.27;101397.81;5045575;28;20032;-72
2023/03/16 04:59:55;;;;;;;13.57;4.85;;;;;;;2.24;89.42;101394.84;5046465;28;20453;-72
2023/03/16 05:02:26;;;;;;;8.50;4.40;;;;;;;2.26;89.28;101397.28;5047003;28;20078;-72
2023/03/16 05:04:54;;;;;;;9.75;4.85;;;;;;;2.27;89.37;101386.16;5063447;28;20074;-72
2023/03/16 05:07:19;;;;;;;13.35;5.07;;;;;;;2.22;89.50;101383.84;5045112;28;20076;-72
2023/03/16 05:09:49;;;;;;;8.88;4.85;;;;;;;2.33;89.16;101389.16;5046344;28;20545;-72
2023/03/16 05:12:15;;;;;;;13.00;4.90;;;;;;;2.31;89.46;101390.19;5046054;28;20032;-72
2023/03/16 05:14:42;;;;;;;12.23;5.00;;;;;;;2.21;89.38;101396.75;5045464;28;20490;-72
2023/03/16 05:17:31;;;;;;;12.25;4.40;;;;;;;2.33;89.96;101399.41;5063833;28;20044;-72
2023/03/16 05:19:57;;;;;;;6.70;4.38;;;;;;;2.31;89.36;101397.84;5060176;28;20040;-72
2023/03/16 05:22:23;;;;;;;8.68;4.10;;;;;;;2.32;89.82;101394.41;5046713;28;20359;-72
2023/03/16 05:25:24;;;;;;;10.27;4.88;;;;;;;2.30;89.54;101393.66;5047593;28;22285;-72
2023/03/16 05:27:55;;;;;;;9.70;4.38;;;;;;;2.38;89.82;101398.34;5047523;28;20052;-72
2023/03/16 05:30:41;;;;;;;9.23;4.20;;;;;;;2.24;89.85;101401.69;5046894;28;20044;-72
2023/03/16 05:33:11;;;;;;;10.02;4.50;;;;;;;2.28;89.66;101400.59;5029872;28;20057;-72
2023/03/16 05:35:37;;;;;;;11.25;4.70;;;;;;;2.25;89.88;101393.91;5065496;28;20024;-72
2023/03/16 05:38:08;;;;;;;10.05;5.43;;;;;;;2.30;89.44;101383.44;5062208;28;20094;-72
2023/03/16 05:40:37;;;;;;;12.20;5.30;;;;;;;2.23;90.03;101389.81;5032925;28;20040;-72
2023/03/16 05:43:20;;;;;;;11.55;4.53;;;;;;;2.32;89.66;101390.09;5060931;28;20044;-72
2023/03/16 05:45:49;;;;;;;9.13;4.40;;;;;;;2.32;89.39;101386.72;5050208;28;20033;-72
2023/03/16 05:48:16;;;;;;;9.10;4.55;;;;;;;2.25;89.45;101385.41;5045793;28;20037;-72
2023/03/16 05:50:49;;;;;;;11.57;4.60;;;;;;;2.29;89.86;101394.56;5044445;28;20043;-72
2023/03/16 05:53:17;;;;;;;9.15;5.07;;;;;;;2.32;89.53;101391.84;5047145;28;20442;-72
2023/03/16 05:55:43;;;;;;;13.75;5.45;;;;;;;2.33;89.77;101396.84;5066342;28;20513;-72
2023/03/16 05:58:12;;;;;;;9.20;5.68;;;;;;;2.28;89.89;101398.03;5045650;28;20086;-72
2023/03/16 06:00:40;;;;;;;8.25;4.32;;;;;;;2.32;89.64;101402.91;5062233;28;20028;-72
2023/03/16 06:03:35;;;;;;;8.93;4.95;;;;;;;2.31;89.69;101403.78;5038830;28;20032;-72
2023/03/16 06:06:01;;;;;;;8.57;4.57;;;;;;;2.33;89.30;101401.97;5063532;28;20115;-72
2023/03/16 06:08:31;;;;;;;11.25;5.50;;;;;;;2.34;89.46;101395.94;5031378;28;20111;-73
2023/03/16 06:11:05;;;;;;;13.10;5.13;;;;;;;2.40;89.71;101391.41;5048203;28;20036;-73
2023/03/16 06:13:31;;;;;;;11.60;5.32;;;;;;;2.38;89.48;101393.22;5045744;28;20036;-72
2023/03/16 06:15:56;;;;;;;10.07;5.60;;;;;;;2.38;89.52;101391.47;5064398;28;20289;-72
2023/03/16 06:18:22;;;;;;;10.32;5.38;;;;;;;2.40;90.18;101397.34;5046230;28;20510;-72
2023/03/16 06:20:48;;;;;;;12.80;6.13;;;;;;;2.46;90.22;101399.53;5047082;28;20032;-72
2023/03/16 06:23:14;;;;;;;11.50;5.40;;;;;;;2.38;90.50;101399.16;5062879;28;20059;-72
2023/03/16 06:25:40;;;;;;;10.05;4.90;;;;;;;2.35;90.97;101401.88;5043480;28;20319;-72
2023/03/16 06:28:06;;;;;;;11.77;5.40;;;;;;;2.40;90.77;101396.53;5043313;28;20037;-72
2023/03/16 06:30:33;;;;;;;12.20;5.40;;;;;;;2.46;90.32;101396.97;5044083;28;20071;-72
2023/03/16 06:32:59;;;;;;;16.90;6.38;;;;;;;2.49;90.61;101403.66;5057967;28;20300;-72
2023/03/16 06:35:25;;;;;;;14.35;5.65;;;;;;;2.57;90.34;101401.47;5048196;28;20040;-72
2023/03/16 06:38:04;;;;;;;15.88;6.13;;;;;;;2.63;89.96;101400.28;5049725;28;20062;-72
2023/03/16 06:40:43;;;;;;;10.73;5.30;;;;;;;2.59;90.38;101399.66;5048267;28;20039;-72
2023/03/16 06:43:08;;;;;;;11.45;5.40;;;;;;;2.64;90.59;101399.41;5032018;28;20048;-72
2023/03/16 06:45:34;;;;;;;10.95;5.20;;;;;;;2.65;90.26;101399.28;5033697;28;20032;-72
2023/03/16 06:48:00;;;;;;;15.43;5.40;;;;;;;2.73;89.76;101406.50;5064030;28;20045;-72
2023/03/16 06:50:26;;;;;;;12.85;5.28;;;;;;;2.71;89.87;101403.22;5047631;28;20032;-72
2023/03/16 06:52:52;;;;;;;15.98;6.25;;;;;;;2.79;90.06;101405.31;5061265;28;20028;-72
2023/03/16 06:55:18;;;;;;;12.65;6.22;;;;;;;2.82;89.56;101408.53;5044370;28;20085;-72
2023/03/16 06:57:45;;;;;;;12.20;5.70;;;;;;;2.83;89.31;101402.50;5045353;28;20029;-72
2023/03/16 07:00:14;;;;;;;14.80;5.68;;;;;;;2.94;89.12;101409.56;5062568;28;20029;-72
2023/03/16 07:02:41;;;;;;;10.00;5.00;;;;;;;2.90;89.24;101410.63;5045044;28;20059;-73
2023/03/16 07:05:12;;;;;;;11.65;5.75;;;;;;;2.97;89.44;101422.19;5048455;28;20111;-71
2023/03/16 07:07:41;;;;;;;9.45;5.85;;;;;;;2.87;89.52;101411.66;5044340;28;20035;-72
2023/03/16 07:10:12;;;;;;;13.77;5.45;;;;;;;3.02;89.49;101417.59;5059908;28;20032;-72
2023/03/16 07:12:38;;;;;;;12.68;5.57;;;;;;;3.02;88.96;101417.59;5040691;28;20112;-72
2023/03/16 07:15:04;;;;;;;11.10;6.00;;;;;;;3.00;88.62;101416.88;5042149;28;20090;-72
2023/03/16 07:17:31;;;;;;;16.30;5.50;;;;;;;3.05;88.61;101422.56;5061827;28;21846;-72
2023/03/16 07:19:57;;;;;;;17.25;7.07;;;;;;;3.14;88.92;101420.34;5041050;28;20028;-72
2023/03/16 07:22:23;;;;;;;11.68;5.80;;;;;;;3.25;88.27;101428.22;5045278;28;20090;-72
2023/03/16 07:24:56;;;;;;;15.02;6.10;;;;;;;3.30;87.57;101415.94;5044286;28;20208;-72
2023/03/16 08:31:45;;;;;;;13.55;7.88;;;;;;;4.70;84.24;101404.44;5074005;22;20524;-81
2023/03/16 08:34:17;;;;;;;13.60;7.55;;;;;;;4.83;85.16;101402.69;5025094;28;20163;-82
2023/03/16 08:36:43;;;;;;;12.07;5.60;;;;;;;4.81;84.38;101399.41;5026956;28;20037;-82
2023/03/16 08:39:10;;;;;;;13.07;6.35;;;;;;;4.81;84.73;101391.69;5027953;28;20402;-82
2023/03/16 08:41:44;;;;;;;10.88;5.65;;;;;;;4.83;84.06;101397.53;5030855;28;20478;-84
2023/03/16 08:44:22;;;;;;;13.85;6.50;;;;;;;4.94;85.68;101401.16;5020695;28;20107;-82
2023/03/16 08:46:48;;;;;;;14.65;6.20;;;;;;;4.94;85.45;101401.97;5022698;28;20025;-82
2023/03/16 08:49:13;;;;;;;12.15;5.70;;;;;;;4.96;85.97;101389.81;5015044;28;20376;-81
2023/03/16 08:51:39;;;;;;;16.20;6.00;;;;;;;5.03;86.65;101397.94;5020965;28;20026;-84
2023/03/16 08:54:06;;;;;;;15.50;5.95;;;;;;;5.17;86.61;101389.28;5011563;28;20048;-80
2023/03/16 08:56:31;;;;;;;15.35;6.60;;;;;;;5.19;85.99;101397.72;5007126;28;20471;-81
2023/03/16 08:58:57;;;;;;;13.65;6.10;;;;;;;5.15;85.93;101402.22;5029129;28;20060;-82
2023/03/16 09:01:24;;;;;;;12.15;6.15;;;;;;;5.13;86.29;101398.94;5026381;28;20037;-78
2023/03/16 09:03:50;;;;;;;13.05;6.43;;;;;;;5.24;86.19;101395.66;5022987;28;20033;-81
2023/03/16 09:06:16;;;;;;;13.85;7.38;;;;;;;5.35;85.35;101388.00;5006677;28;20025;-81
2023/03/16 09:08:44;;;;;;;15.18;6.72;;;;;;;5.40;85.32;101388.47;5020578;28;20048;-78
2023/03/16 09:11:15;;;;;;;10.85;6.47;;;;;;;5.54;85.79;101390.09;5011277;28;20059;-78
2023/03/16 09:13:41;;;;;;;11.82;6.95;;;;;;;5.46;84.97;101377.78;5010383;28;20035;-76
2023/03/16 09:16:08;;;;;;;12.63;6.43;;;;;;;5.31;84.33;101378.03;5025375;28;20497;-83
2023/03/16 09:18:35;;;;;;;15.00;7.07;;;;;;;5.42;84.30;101371.19;5009788;28;20030;-81
2023/03/16 09:21:05;;;;;;;12.45;5.65;;;;;;;5.41;83.28;101366.19;5021490;28;20033;-80
2023/03/16 11:52:16;;;;;;;6.75;3.58;;;;;;;9.89;60.15;101206.84;5045342;28;20045;-78
2023/03/16 11:55:09;;;;;;;8.07;3.58;;;;;;;10.11;61.44;101181.53;4981005;28;20049;-76
2023/03/16 11:57:46;;;;;;;8.93;3.10;;;;;;;10.10;60.57;101177.31;5039894;28;20037;-76
2023/03/16 12:00:35;;;;;;;13.02;2.95;;;;;;;10.21;60.52;101177.13;5025061;28;20057;-77
2023/03/16 12:03:36;;;;;;;8.32;3.00;;;;;;;10.32;60.42;101161.41;5024801;28;20091;-76
2023/03/16 12:06:27;;;;;;;8.55;3.22;;;;;;;10.50;60.64;101170.97;5019602;28;20041;-77
2023/03/16 12:09:03;;;;;;;3.85;2.33;;;;;;;10.59;58.25;101161.50;5041877;28;20112;-79
2023/03/16 12:11:53;;;;;;;4.68;2.50;;;;;;;10.38;58.23;101151.41;5028111;28;20029;-76
2023/03/16 12:14:26;;;;;;;9.18;2.80;;;;;;;10.57;58.51;101156.47;5007935;28;20479;-77
2023/03/16 12:16:51;;;;;;;;;;;;;;;10.52;56.85;101156.09;5027400;28;20040;-78
2023/03/16 12:19:23;;;;;;;8.10;2.28;;;;;;;10.54;57.81;101141.19;5028491;28;19917;-77
2023/03/16 12:22:00;;;;;;;3.25;1.92;;;;;;;10.51;56.33;101139.72;5046059;28;20053;-77
2023/03/16 12:24:31;;;;;;;5.78;2.10;;;;;;;10.54;57.16;101146.38;5025927;28;20454;-77
2023/03/16 12:26:58;;;;;;;6.63;2.10;;;;;;;10.62;57.42;101127.50;5013030;28;20037;-78
2023/03/16 12:29:40;;;;;;;4.95;2.05;;;;;;;10.65;56.05;101130.59;5010826;28;20044;-79
2023/03/16 12:32:35;;;;;;;7.80;2.60;;;;;;;10.64;58.30;101122.97;5042955;28;22016;-77
2023/03/16 12:35:23;;;;;;;5.53;2.95;;;;;;;10.82;58.57;101115.19;5039939;28;20098;-76
2023/03/16 12:38:14;;;;;;;4.30;1.88;;;;;;;10.68;57.45;101111.31;5024497;28;20034;-77
2023/03/16 12:40:51;;;;;;;4.70;1.92;;;;;;;10.74;57.31;101105.56;5025994;28;20116;-78
2023/03/16 12:43:23;;;;;;;5.93;1.75;;;;;;;10.88;56.48;101105.00;5024541;28;20052;-78
2023/03/16 12:46:03;;;;;;;4.50;2.50;;;;;;;10.96;57.64;101104.25;5008778;28;20092;-77
2023/03/16 12:48:54;;;;;;;6.30;2.50;;;;;;;11.07;58.65;101092.84;5026715;28;20037;-78
2023/03/16 12:51:30;;;;;;;6.57;2.72;;;;;;;11.04;58.04;101099.16;5044950;28;20687;-78
2023/03/16 12:53:57;;;;;;;9.30;2.67;;;;;;;10.95;56.16;101092.28;5024474;28;20045;-79
2023/03/16 12:56:43;;;;;;;5.85;1.85;;;;;;;11.02;55.88;101085.50;5025681;28;20063;-79
2023/03/16 12:59:19;;;;;;;4.93;1.88;;;;;;;11.16;55.64;101084.13;5025771;28;20041;-78
2023/03/16 13:01:49;;;;;;;3.47;1.83;;;;;;;11.29;56.63;101086.31;5026025;28;20036;-78
2023/03/16 13:04:29;;;;;;;12.73;2.20;;;;;;;11.28;55.72;101097.66;5026463;28;20136;-78
2023/03/16 13:07:15;;;;;;;5.32;2.10;;;;;;;11.31;56.86;101086.97;5043772;28;20080;-78
2023/03/16 13:09:52;;;;;;;6.40;2.40;;;;;;;11.58;58.96;101085.16;5023561;28;20478;-78
2023/03/16 13:12:35;;;;;;;5.57;2.88;;;;;;;11.43;57.02;101087.53;5006740;28;20087;-80
2023/03/16 13:15:03;;;;;;;4.13;2.50;;;;;;;11.30;57.52;101082.75;5027828;28;20045;-79
2023/03/16 13:17:31;;;;;;;5.18;2.42;;;;;;;11.39;57.82;101068.84;5042014;28;20036;-78
2023/03/16 13:20:12;;;;;;;4.93;2.50;;;;;;;11.51;58.15;101059.03;5026694;28;20045;-79
2023/03/16 13:22:51;;;;;;;6.97;2.75;;;;;;;11.58;57.03;101059.19;5026253;28;20099;-78
2023/03/16 13:25:40;;;;;;;5.05;2.53;;;;;;;11.59;57.09;101051.25;5003768;28;20658;-78
2023/03/16 13:28:11;;;;;;;4.95;2.50;;;;;;;11.66;57.29;101041.06;5039803;28;20029;-77
2023/03/16 13:30:45;;;;;;;6.10;2.38;;;;;;;11.82;57.17;101033.31;5022923;28;20033;-78
2023/03/16 13:33:24;;;;;;;8.35;2.30;;;;;;;11.76;54.15;101017.56;5027472;28;20044;-78
2023/03/16 13:35:51;;;;;;;3.75;1.92;;;;;;;11.94;54.59;101020.03;5008575;28;20553;-76
2023/03/16 13:38:21;;;;;;;6.78;1.90;;;;;;;12.00;55.28;101017.63;5022097;28;20033;-78
2023/03/16 13:40:50;;;;;;;4.35;1.73;;;;;;;12.14;55.24;101018.78;5026283;28;20098;-78
2023/03/16 13:43:20;;;;;;;4.78;2.28;;;;;;;12.18;55.25;101003.69;5024169;28;20125;-79
2023/03/16 13:45:46;;;;;;;7.30;2.13;;;;;;;12.14;55.03;101012.78;5027430;28;20083;-77
2023/03/16 13:48:13;;;;;;;3.50;1.80;;;;;;;12.21;54.04;101005.97;5008796;28;20503;-79
2023/03/16 13:50:41;;;;;;;4.85;2.08;;;;;;;12.23;54.36;100989.22;5025726;28;20083;-78
2023/03/16 13:53:23;;;;;;;8.18;2.03;;;;;;;12.15;54.19;100988.38;5022545;28;20124;-77
2023/03/16 13:55:50;;;;;;;7.43;2.15;;;;;;;12.26;54.51;100986.31;5009775;28;20060;-79
2023/03/16 13:58:30;;;;;;;7.03;2.13;;;;;;;12.26;55.18;100978.50;5026025;28;20045;-79
2023/03/16 14:00:59;;;;;;;6.57;2.10;;;;;;;12.26;54.51;100977.66;5027948;28;20033;-78
2023/03/16 14:03:31;;;;;;;3.38;1.60;;;;;;;12.30;54.46;100985.97;5025163;28;20499;-79
2023/03/16 14:05:57;;;;;;;6.32;2.08;;;;;;;12.35;54.55;100968.91;5027387;28;20025;-77
2023/03/16 14:08:23;;;;;;;8.50;1.90;;;;;;;12.39;54.18;100965.00;5025918;28;20040;-80
2023/03/16 14:10:50;;;;;;;8.85;3.60;;;;;;;12.49;53.88;100966.63;5022418;28;20029;-78
2023/03/16 14:13:28;;;;;;;14.35;5.60;;;;;;;12.39;53.06;100964.19;5023929;28;20045;-82
2023/03/16 14:16:01;;;;;;;6.38;3.47;;;;;;;12.47;53.68;100961.59;5025311;28;20033;-79
2023/03/16 14:18:33;;;;;;;23.30;9.55;;;;;;;12.41;53.81;100950.06;5042302;28;20041;-79
2023/03/16 14:21:09;;;;;;;5.32;2.63;;;;;;;12.36;54.10;100947.13;5024546;28;20040;-79
2023/03/16 14:23:44;;;;;;;11.68;3.70;;;;;;;12.29;54.17;100943.56;5025391;28;20033;-78
2023/03/16 14:26:17;;;;;;;6.93;3.72;;;;;;;12.40;54.53;100935.44;5024610;28;20087;-78
2023/03/16 14:29:18;;;;;;;6.40;3.15;;;;;;;12.35;52.99;100935.09;5022631;28;20041;-76
2023/03/16 14:31:44;;;;;;;6.82;2.33;;;;;;;12.33;53.30;100939.66;5000429;28;20049;-80
2023/03/16 14:34:30;;;;;;;11.52;6.00;;;;;;;12.21;53.13;100922.78;5027983;28;20052;-78
2023/03/16 14:37:12;;;;;;;6.45;3.47;;;;;;;12.31;54.24;100925.19;5027870;28;20029;-78
2023/03/16 14:39:41;;;;;;;8.55;2.28;;;;;;;12.38;53.37;100918.38;5028190;28;20057;-80
2023/03/16 14:42:29;;;;;;;6.88;2.08;;;;;;;12.44;52.96;100921.09;5031197;28;20030;-79
2023/03/16 14:45:00;;;;;;;4.38;1.70;;;;;;;12.48;53.18;100908.59;5026255;28;20887;-78
2023/03/16 14:47:29;;;;;;;9.40;2.13;;;;;;;12.55;53.50;100911.34;5029360;28;21713;-79
2023/03/16 14:50:01;;;;;;;5.15;2.13;;;;;;;12.57;52.78;100910.19;5007152;28;20092;-80
2023/03/16 14:52:32;;;;;;;5.13;2.53;;;;;;;12.38;52.92;100902.78;5026688;28;20042;-78
2023/03/16 14:54:58;;;;;;;6.22;2.28;;;;;;;12.38;53.25;100900.16;5025114;28;21739;-78
2023/03/16 14:57:25;;;;;;;3.85;1.70;;;;;;;12.31;52.15;100907.81;5027970;28;20095;-79
2023/03/16 14:59:54;;;;;;;4.60;1.67;;;;;;;12.23;52.49;100900.84;5025947;28;20455;-80
2023/03/16 15:02:28;;;;;;;4.88;1.67;;;;;;;12.15;52.80;100894.81;5026837;28;20104;-79
2023/03/16 15:04:55;;;;;;;4.53;2.35;;;;;;;12.12;52.17;100900.34;5025660;28;20083;-77
2023/03/16 15:07:28;;;;;;;3.33;1.42;;;;;;;12.13;52.70;100894.16;5027316;28;20091;-80
2023/03/16 15:09:59;;;;;;;6.97;1.98;;;;;;;12.17;53.24;100882.50;5022522;28;20535;-77
2023/03/16 15:12:25;;;;;;;4.32;1.70;;;;;;;12.27;53.43;100883.91;5028347;28;20037;-79
2023/03/16 15:17:56;;;;;;;3.00;1.33;;;;;;;12.36;52.82;100879.53;4985266;28;20631;-79
2023/03/16 15:20:28;;;;;;;10.52;1.92;;;;;;;12.24;53.03;100878.22;4954389;28;20034;-77